createdAt,value
2022-10-26T00:01:04.030Z,3.60
2022-10-26T00:03:30.933Z,3.47
2022-10-26T00:06:08.694Z,3.53
2022-10-26T00:08:35.798Z,3.47
2022-10-26T00:11:03.432Z,3.33
2022-10-26T00:13:30.230Z,3.10
2022-10-26T00:15:58.167Z,3.53
2022-10-26T00:18:24.994Z,3.53
2022-10-26T00:20:51.782Z,3.20
2022-10-26T00:23:18.482Z,3.50
2022-10-26T00:25:45.283Z,3.43
2022-10-26T00:28:13.188Z,4.67
2022-10-26T00:30:40.237Z,3.57
2022-10-26T00:33:06.925Z,3.30
2022-10-26T00:35:45.680Z,3.40
2022-10-26T00:38:14.681Z,4.33
2022-10-26T00:40:41.357Z,3.70
2022-10-26T00:43:20.339Z,2.90
2022-10-26T00:45:49.258Z,3.50
2022-10-26T00:48:28.406Z,2.97
2022-10-26T00:50:59.838Z,3.03
2022-10-26T00:53:28.344Z,2.60
2022-10-26T00:55:55.839Z,3.00
2022-10-26T00:58:23.430Z,3.17
2022-10-26T01:00:50.971Z,3.23
2022-10-26T01:03:18.950Z,2.53
2022-10-26T01:05:47.748Z,2.93
2022-10-26T01:08:17.164Z,2.77
2022-10-26T01:10:45.484Z,2.90
2022-10-26T01:13:14.649Z,3.00
2022-10-26T01:15:50.396Z,2.47
2022-10-26T01:18:25.659Z,2.70
2022-10-26T01:21:03.456Z,2.80
2022-10-26T01:23:36.154Z,2.60
2022-10-26T01:26:56.813Z,2.13
2022-10-26T01:29:41.181Z,2.50
2022-10-26T01:32:19.385Z,2.40
2022-10-26T01:35:06.504Z,2.50
2022-10-26T01:37:45.496Z,2.70
2022-10-26T01:40:21.440Z,2.17
2022-10-26T01:42:53.391Z,2.83
2022-10-26T01:45:20.646Z,3.03
2022-10-26T01:47:48.661Z,2.60
2022-10-26T01:50:16.986Z,2.50
2022-10-26T01:52:45.182Z,2.70
2022-10-26T01:55:36.759Z,2.33
2022-10-26T01:58:23.770Z,2.63
2022-10-26T02:01:37.436Z,2.40
2022-10-26T02:04:34.739Z,2.37
2022-10-26T02:07:04.493Z,2.77
2022-10-26T02:10:13.242Z,2.00
2022-10-26T02:13:10.661Z,2.27
2022-10-26T02:15:58.147Z,2.30
2022-10-26T02:18:34.607Z,2.67
2022-10-26T02:21:07.846Z,2.50
2022-10-26T02:23:39.009Z,2.53
2022-10-26T02:26:09.518Z,2.00
2022-10-26T02:28:45.598Z,2.50
2022-10-26T02:31:15.295Z,2.20
2022-10-26T02:36:27.682Z,2.20
2022-10-26T02:38:57.317Z,1.97
2022-10-26T02:41:27.512Z,2.03
2022-10-26T02:44:04.554Z,2.40
2022-10-26T02:46:31.646Z,2.20
2022-10-26T02:48:59.450Z,2.10
2022-10-26T02:51:32.009Z,2.90
2022-10-26T02:54:20.421Z,2.57
2022-10-26T02:56:47.066Z,2.13
2022-10-26T02:59:17.094Z,2.20
2022-10-26T03:01:45.747Z,2.30
2022-10-26T03:04:12.485Z,2.00
2022-10-26T03:06:39.250Z,3.00
2022-10-26T03:09:05.974Z,1.90
2022-10-26T03:11:32.638Z,1.90
2022-10-26T03:14:00.627Z,1.90
2022-10-26T03:16:27.732Z,1.77
2022-10-26T03:18:54.449Z,1.60
2022-10-26T03:21:21.171Z,2.73
2022-10-26T03:23:48.076Z,1.60
2022-10-26T03:26:15.964Z,1.83
2022-10-26T03:28:42.694Z,2.10
2022-10-26T03:31:09.461Z,1.50
2022-10-26T03:33:39.114Z,1.40
2022-10-26T03:36:06.386Z,1.43
2022-10-26T03:38:33.140Z,1.47
2022-10-26T03:41:01.106Z,1.67
2022-10-26T03:43:27.801Z,1.50
2022-10-26T03:45:54.477Z,1.20
2022-10-26T03:48:21.198Z,1.77
2022-10-26T03:50:47.899Z,2.00
2022-10-26T03:53:15.117Z,1.70
2022-10-26T03:55:45.166Z,1.63
2022-10-26T03:58:11.937Z,1.47
2022-10-26T04:00:38.706Z,1.20
2022-10-26T04:03:05.433Z,1.93
2022-10-26T04:05:32.716Z,1.50
2022-10-26T04:08:04.877Z,1.53
2022-10-26T04:10:32.388Z,1.33
2022-10-26T04:13:00.436Z,1.60
2022-10-26T04:15:28.122Z,1.97
2022-10-26T04:18:00.292Z,2.10
2022-10-26T04:20:29.019Z,1.37
2022-10-26T04:23:03.242Z,1.53
2022-10-26T04:25:33.083Z,1.53
2022-10-26T04:28:02.566Z,1.57
2022-10-26T04:30:29.740Z,1.43
2022-10-26T04:32:57.024Z,1.87
2022-10-26T04:35:24.014Z,1.40
2022-10-26T04:37:50.726Z,1.50
2022-10-26T04:40:18.281Z,1.33
2022-10-26T04:42:47.767Z,1.40
2022-10-26T04:45:16.975Z,1.30
2022-10-26T04:47:44.082Z,1.50
2022-10-26T04:50:12.249Z,1.60
2022-10-26T04:52:39.622Z,1.60
2022-10-26T04:55:07.649Z,1.33
2022-10-26T04:57:35.385Z,1.27
2022-10-26T05:00:04.028Z,1.60
2022-10-26T05:02:31.889Z,1.70
2022-10-26T05:04:58.874Z,1.93
2022-10-26T05:07:25.838Z,1.80
2022-10-26T05:09:52.614Z,1.67
2022-10-26T05:12:19.486Z,1.80
2022-10-26T05:14:47.249Z,1.47
2022-10-26T05:17:13.954Z,1.80
2022-10-26T05:19:40.942Z,1.50
2022-10-26T05:22:07.950Z,2.30
2022-10-26T05:24:34.821Z,1.60
2022-10-26T05:27:02.371Z,2.60
2022-10-26T05:29:29.028Z,1.97
2022-10-26T05:31:56.035Z,2.83
2022-10-26T05:34:22.755Z,2.20
2022-10-26T05:36:49.422Z,1.60
2022-10-26T05:39:17.118Z,2.00
2022-10-26T05:41:43.874Z,2.20
2022-10-26T05:44:10.818Z,2.00
2022-10-26T05:46:37.611Z,2.17
2022-10-26T05:49:04.350Z,2.53
2022-10-26T05:51:34.498Z,2.23
2022-10-26T05:54:01.787Z,2.30
2022-10-26T05:56:39.882Z,1.90
2022-10-26T05:59:17.777Z,2.00
2022-10-26T06:02:09.528Z,1.43
2022-10-26T06:04:48.035Z,1.93
2022-10-26T06:07:22.056Z,2.50
2022-10-26T06:09:49.293Z,1.67
2022-10-26T06:12:19.638Z,1.50
2022-10-26T06:14:48.062Z,1.97
2022-10-26T06:17:33.153Z,1.70
2022-10-26T06:20:06.321Z,1.73
2022-10-26T06:22:59.465Z,2.07
2022-10-26T06:25:29.347Z,1.60
2022-10-26T06:28:14.064Z,2.17
2022-10-26T06:30:41.718Z,3.27
2022-10-26T06:33:24.892Z,1.80
2022-10-26T06:36:18.451Z,1.70
2022-10-26T06:38:46.723Z,1.57
2022-10-26T06:41:19.319Z,1.80
2022-10-26T06:43:46.860Z,1.77
2022-10-26T06:46:24.289Z,1.50
2022-10-26T06:49:02.951Z,1.33
2022-10-26T06:51:33.277Z,1.60
2022-10-26T06:54:11.320Z,1.50
2022-10-26T06:56:38.358Z,1.30
2022-10-26T06:59:14.022Z,1.93
2022-10-26T07:01:40.736Z,1.43
2022-10-26T07:04:07.514Z,1.60
2022-10-26T07:06:36.826Z,1.60
2022-10-26T07:09:05.931Z,1.40
2022-10-26T07:11:33.370Z,1.20
2022-10-26T07:14:00.374Z,1.40
2022-10-26T07:16:28.001Z,1.10
2022-10-26T07:18:54.754Z,1.17
2022-10-26T07:21:21.482Z,1.30
2022-10-26T07:23:48.586Z,1.10
2022-10-26T07:26:15.464Z,1.20
2022-10-26T07:28:42.213Z,1.20
2022-10-26T07:31:08.949Z,1.30
2022-10-26T07:33:38.069Z,0.90
2022-10-26T07:36:10.923Z,1.30
2022-10-26T07:38:38.885Z,0.90
2022-10-26T07:41:06.414Z,1.10
2022-10-26T07:43:33.815Z,1.08
2022-10-26T07:46:00.702Z,1.33
2022-10-26T07:48:27.904Z,1.37
2022-10-26T07:50:54.676Z,1.10
2022-10-26T07:53:26.748Z,1.30
2022-10-26T07:55:56.280Z,1.63
2022-10-26T07:58:25.967Z,1.23
2022-10-26T08:00:54.021Z,1.30
2022-10-26T08:03:21.659Z,1.57
2022-10-26T08:05:51.419Z,1.60
2022-10-26T08:08:19.043Z,1.53
2022-10-26T08:10:47.774Z,1.47
2022-10-26T08:13:15.303Z,1.58
2022-10-26T08:15:42.191Z,2.00
2022-10-26T08:18:08.932Z,1.80
2022-10-26T08:20:35.707Z,1.30
2022-10-26T08:23:06.180Z,1.38
2022-10-26T08:25:34.562Z,1.13
2022-10-26T08:28:03.832Z,1.75
2022-10-26T08:33:04.279Z,1.25
2022-10-26T08:35:32.886Z,1.50
2022-10-26T08:37:59.884Z,1.80
2022-10-26T08:40:32.854Z,1.33
2022-10-26T08:43:32.849Z,1.40
2022-10-26T08:46:09.470Z,1.35
2022-10-26T08:48:40.576Z,1.23
2022-10-26T08:51:14.616Z,1.77
2022-10-26T08:53:52.747Z,1.23
2022-10-26T08:56:25.618Z,1.25
2022-10-26T08:59:07.930Z,1.50
2022-10-26T09:01:34.738Z,3.25
2022-10-26T09:04:04.428Z,0.88
2022-10-26T09:06:58.006Z,0.95
2022-10-26T09:09:42.763Z,2.25
2022-10-26T09:12:33.265Z,0.98
2022-10-26T09:15:15.011Z,1.10
2022-10-26T09:18:20.546Z,0.95
2022-10-26T09:20:49.866Z,0.85
2022-10-26T09:23:22.389Z,1.00
2022-10-26T09:25:58.471Z,1.30
2022-10-26T09:28:28.547Z,1.08
2022-10-26T09:30:59.091Z,0.85
2022-10-26T09:33:26.753Z,0.95
2022-10-26T09:36:04.477Z,1.05
2022-10-26T09:38:40.114Z,1.10
2022-10-26T09:41:18.665Z,0.80
2022-10-26T09:43:58.224Z,1.02
2022-10-26T09:46:31.410Z,0.93
2022-10-26T09:51:38.258Z,0.65
2022-10-26T09:54:15.275Z,0.90
2022-10-26T09:56:45.349Z,0.98
2022-10-26T09:59:13.264Z,1.17
2022-10-26T10:01:42.337Z,1.27
2022-10-26T10:04:21.269Z,0.98
2022-10-26T10:06:52.979Z,1.08
2022-10-26T10:09:22.723Z,1.60
2022-10-26T10:12:01.175Z,0.80
2022-10-26T10:14:59.115Z,0.70
2022-10-26T10:17:26.618Z,0.70
2022-10-26T10:19:53.574Z,0.45
2022-10-26T10:22:25.206Z,0.50
2022-10-26T10:25:04.022Z,0.50
2022-10-26T10:27:31.146Z,0.80
2022-10-26T10:30:13.640Z,1.10
2022-10-26T10:32:41.450Z,0.73
2022-10-26T10:35:24.301Z,0.60
2022-10-26T10:37:52.287Z,0.70
2022-10-26T10:40:25.391Z,0.50
2022-10-26T10:42:55.460Z,0.82
2022-10-26T10:45:25.362Z,0.60
2022-10-26T10:48:20.691Z,0.60
2022-10-26T10:51:04.302Z,0.52
2022-10-26T10:53:46.549Z,0.80
2022-10-26T10:56:42.450Z,0.88
2022-10-26T10:59:35.354Z,0.70
2022-10-26T11:02:35.370Z,0.80
2022-10-26T11:05:05.563Z,0.60
2022-10-26T11:07:44.948Z,0.73
2022-10-26T11:10:16.203Z,0.88
2022-10-26T11:12:57.435Z,0.60
2022-10-26T11:15:27.890Z,0.73
2022-10-26T11:18:11.085Z,0.82
2022-10-26T11:20:42.382Z,0.60
2022-10-26T11:23:23.926Z,0.88
2022-10-26T11:26:00.789Z,0.68
2022-10-26T11:28:45.912Z,0.63
2022-10-26T11:31:21.453Z,0.82
2022-10-26T11:34:12.461Z,0.55
2022-10-26T11:36:42.076Z,0.80
2022-10-26T11:39:23.597Z,0.68
2022-10-26T11:42:17.371Z,1.30
2022-10-26T11:45:21.846Z,0.90
2022-10-26T11:47:54.995Z,1.02
2022-10-26T11:50:32.841Z,1.13
2022-10-26T11:53:16.290Z,1.13
2022-10-26T11:55:53.377Z,0.93
2022-10-26T11:58:24.481Z,1.15
2022-10-26T12:01:00.287Z,1.13
2022-10-26T12:03:37.470Z,1.00
2022-10-26T12:06:04.966Z,1.00
2022-10-26T12:08:38.658Z,1.35
2022-10-26T12:11:30.334Z,1.00
2022-10-26T12:14:26.451Z,1.27
2022-10-26T12:17:21.119Z,1.30
2022-10-26T12:20:39.141Z,1.02
2022-10-26T12:23:11.207Z,1.48
2022-10-26T12:25:40.570Z,1.10
2022-10-26T12:28:36.309Z,1.23
2022-10-26T12:31:36.918Z,1.27
2022-10-26T12:34:22.720Z,1.20
2022-10-26T12:36:55.194Z,1.08
2022-10-26T12:39:30.965Z,1.23
2022-10-26T12:42:06.566Z,1.13
2022-10-26T12:44:48.940Z,1.08
2022-10-26T12:47:28.090Z,1.08
2022-10-26T12:50:07.462Z,1.40
2022-10-26T12:52:50.716Z,1.95
2022-10-26T12:55:26.497Z,1.67
2022-10-26T12:58:29.687Z,1.08
2022-10-26T13:00:59.178Z,1.02
2022-10-26T13:03:39.983Z,1.42
2022-10-26T13:06:28.565Z,1.38
2022-10-26T13:08:59.500Z,1.20
2022-10-26T13:11:38.362Z,1.40
2022-10-26T13:14:09.028Z,1.33
2022-10-26T13:16:36.773Z,1.20
2022-10-26T13:19:03.563Z,1.35
2022-10-26T13:21:30.349Z,0.95
2022-10-26T13:24:05.740Z,2.35
2022-10-26T13:26:52.977Z,1.20
2022-10-26T13:29:20.592Z,2.17
2022-10-26T13:31:47.283Z,1.83
2022-10-26T13:34:18.662Z,1.08
2022-10-26T13:37:14.211Z,1.60
2022-10-26T13:39:44.108Z,1.30
2022-10-26T13:42:20.859Z,2.05
2022-10-26T13:44:57.636Z,1.42
2022-10-26T13:47:30.059Z,1.15
2022-10-26T13:50:04.504Z,1.23
2022-10-26T13:52:42.802Z,1.65
2022-10-26T13:55:25.510Z,1.80
2022-10-26T13:58:11.065Z,3.03
2022-10-26T14:00:38.262Z,2.03
2022-10-26T14:03:18.798Z,1.88
2022-10-26T14:05:49.127Z,1.27
2022-10-26T14:08:18.576Z,1.60
2022-10-26T14:10:57.357Z,1.20
2022-10-26T14:13:26.590Z,1.25
2022-10-26T14:15:55.590Z,1.15
2022-10-26T14:18:27.681Z,1.40
2022-10-26T14:20:57.577Z,1.77
2022-10-26T14:23:28.470Z,1.70
2022-10-26T14:25:59.072Z,1.00
2022-10-26T14:28:30.897Z,1.58
2022-10-26T14:31:22.554Z,1.30
2022-10-26T14:33:49.646Z,1.30
2022-10-26T14:36:19.942Z,1.92
2022-10-26T14:38:51.102Z,1.20
2022-10-26T14:41:18.698Z,1.90
2022-10-26T14:43:46.387Z,1.70
2022-10-26T14:46:16.646Z,1.63
2022-10-26T14:48:58.828Z,1.52
2022-10-26T14:51:28.070Z,1.70
2022-10-26T14:53:58.306Z,1.55
2022-10-26T14:56:37.783Z,1.80
2022-10-26T14:59:22.790Z,1.83
2022-10-26T15:01:56.344Z,2.40
2022-10-26T15:04:37.687Z,1.50
2022-10-26T15:07:13.450Z,1.70
2022-10-26T15:09:44.569Z,1.75
2022-10-26T15:12:34.051Z,1.92
2022-10-26T15:15:10.231Z,1.63
2022-10-26T15:17:41.332Z,1.70
2022-10-26T15:20:16.415Z,1.27
2022-10-26T15:22:49.598Z,2.30
2022-10-26T15:25:23.309Z,2.15
2022-10-26T15:27:52.235Z,3.40
2022-10-26T15:30:28.024Z,1.77
2022-10-26T15:32:55.840Z,1.30
2022-10-26T15:35:27.520Z,1.98
2022-10-26T15:37:56.207Z,1.80
2022-10-26T15:42:59.982Z,2.05
2022-10-26T15:45:30.290Z,1.63
2022-10-26T15:47:59.220Z,2.00
2022-10-26T15:50:28.596Z,2.15
2022-10-26T15:53:01.063Z,1.95
2022-10-26T15:55:31.644Z,2.30
2022-10-26T15:57:58.425Z,1.70
2022-10-26T16:00:25.111Z,1.60
2022-10-26T16:02:52.294Z,2.20
2022-10-26T16:05:19.446Z,1.55
2022-10-26T16:07:48.546Z,2.42
2022-10-26T16:10:23.470Z,1.48
2022-10-26T16:12:51.239Z,1.65
2022-10-26T16:15:27.447Z,2.15
2022-10-26T16:17:54.556Z,2.00
2022-10-26T16:20:24.758Z,2.00
2022-10-26T16:22:53.746Z,1.90
2022-10-26T16:25:23.684Z,2.45
2022-10-26T16:27:50.822Z,1.80
2022-10-26T16:30:18.988Z,1.73
2022-10-26T16:32:46.256Z,2.40
2022-10-26T16:35:13.318Z,1.58
2022-10-26T16:37:40.293Z,3.67
2022-10-26T16:40:09.753Z,1.90
2022-10-26T16:42:37.406Z,1.60
2022-10-26T16:45:04.799Z,2.30
2022-10-26T16:47:35.657Z,2.03
2022-10-26T16:50:04.335Z,2.63
2022-10-26T16:52:34.010Z,2.85
2022-10-26T16:55:01.083Z,4.03
2022-10-26T16:57:27.895Z,2.33
2022-10-26T16:59:54.588Z,2.63
2022-10-26T17:02:21.570Z,2.30
2022-10-26T17:04:49.292Z,2.20
2022-10-26T17:07:16.261Z,1.70
2022-10-26T17:09:43.201Z,2.45
2022-10-26T17:12:11.189Z,1.67
2022-10-26T17:14:39.062Z,1.55
2022-10-26T17:17:06.042Z,1.80
2022-10-26T17:19:32.770Z,1.92
2022-10-26T17:21:59.646Z,2.10
2022-10-26T17:24:27.084Z,2.97
2022-10-26T17:26:54.254Z,2.67
2022-10-26T17:29:21.501Z,1.85
2022-10-26T17:31:48.255Z,3.28
2022-10-26T17:34:15.006Z,1.88
2022-10-26T17:36:41.703Z,1.73
2022-10-26T17:39:09.458Z,2.38
2022-10-26T17:41:36.433Z,1.90
2022-10-26T17:44:03.190Z,2.10
2022-10-26T17:46:30.003Z,3.35
2022-10-26T17:49:01.572Z,2.15
2022-10-26T17:51:30.049Z,2.38
2022-10-26T17:53:59.128Z,2.40
2022-10-26T17:56:31.402Z,2.38
2022-10-26T17:59:00.658Z,2.00
2022-10-26T18:01:28.726Z,3.83
2022-10-26T18:03:55.956Z,3.78
2022-10-26T18:06:24.696Z,2.40
2022-10-26T18:08:51.745Z,2.20
2022-10-26T18:11:27.146Z,2.00
2022-10-26T18:13:57.103Z,2.33
2022-10-26T18:16:26.723Z,2.13
2022-10-26T18:19:00.656Z,2.03
2022-10-26T18:21:29.174Z,2.75
2022-10-26T18:23:56.407Z,2.60
2022-10-26T18:26:28.544Z,2.03
2022-10-26T18:29:00.137Z,2.60
2022-10-26T18:31:28.592Z,2.15
2022-10-26T18:34:00.307Z,2.57
2022-10-26T18:36:28.102Z,2.67
2022-10-26T18:38:55.922Z,2.50
2022-10-26T18:41:24.845Z,2.23
2022-10-26T18:43:55.055Z,1.80
2022-10-26T18:46:25.129Z,1.73
2022-10-26T18:48:53.541Z,1.80
2022-10-26T18:51:23.283Z,2.47
2022-10-26T18:53:50.237Z,2.07
2022-10-26T18:56:21.943Z,2.43
2022-10-26T18:58:50.829Z,2.67
2022-10-26T19:01:19.007Z,3.77
2022-10-26T19:03:46.157Z,3.10
2022-10-26T19:06:21.959Z,3.07
2022-10-26T19:08:48.804Z,3.20
2022-10-26T19:11:17.889Z,2.00
2022-10-26T19:13:45.139Z,2.27
2022-10-26T19:16:17.169Z,2.30
2022-10-26T19:18:48.988Z,2.50
2022-10-26T19:21:20.949Z,2.77
2022-10-26T19:23:50.164Z,4.37
2022-10-26T19:26:22.377Z,3.03
2022-10-26T19:28:57.972Z,2.87
2022-10-26T19:31:27.355Z,2.87
2022-10-26T19:33:58.506Z,3.13
2022-10-26T19:36:27.232Z,3.83
2022-10-26T19:38:55.493Z,4.53
2022-10-26T19:41:24.632Z,4.47
2022-10-26T19:43:51.481Z,6.00
2022-10-26T19:46:21.255Z,4.80
2022-10-26T19:48:54.496Z,4.30
2022-10-26T19:51:25.761Z,6.23
2022-10-26T19:53:52.998Z,5.90
2022-10-26T19:56:20.722Z,5.00
2022-10-26T19:58:48.357Z,4.93
2022-10-26T20:01:15.851Z,4.53
2022-10-26T20:03:43.230Z,4.67
2022-10-26T20:06:12.930Z,4.40
2022-10-26T20:08:41.477Z,5.63
2022-10-26T20:11:13.100Z,3.67
2022-10-26T20:13:44.055Z,3.80
2022-10-26T20:16:12.084Z,4.07
2022-10-26T20:18:44.085Z,4.57
2022-10-26T20:21:15.487Z,4.57
2022-10-26T20:23:42.776Z,4.23
2022-10-26T20:26:12.655Z,4.30
2022-10-26T20:28:45.615Z,3.67
2022-10-26T20:31:13.348Z,3.17
2022-10-26T20:33:40.745Z,3.47
2022-10-26T20:36:08.050Z,3.70
2022-10-26T20:38:35.172Z,3.53
2022-10-26T20:41:06.092Z,4.13
2022-10-26T20:43:39.912Z,4.60
2022-10-26T20:46:22.626Z,4.60
2022-10-26T20:48:50.377Z,4.17
2022-10-26T20:51:26.552Z,4.43
2022-10-26T20:54:05.587Z,5.50
2022-10-26T20:56:34.494Z,5.00
2022-10-26T20:59:03.914Z,4.27
2022-10-26T21:01:38.255Z,5.17
2022-10-26T21:04:05.090Z,4.37
2022-10-26T21:06:40.452Z,4.43
2022-10-26T21:09:08.625Z,4.43
2022-10-26T21:11:36.707Z,3.60
2022-10-26T21:14:05.164Z,4.87
2022-10-26T21:16:31.927Z,3.57
2022-10-26T21:19:00.289Z,4.50
2022-10-26T21:21:27.103Z,4.80
2022-10-26T21:23:53.809Z,4.73
2022-10-26T21:26:20.518Z,4.97
2022-10-26T21:28:47.258Z,4.60
2022-10-26T21:31:17.674Z,4.43
2022-10-26T21:33:46.110Z,4.93
2022-10-26T21:36:13.984Z,5.30
2022-10-26T21:38:43.654Z,4.67
2022-10-26T21:41:11.739Z,5.30
2022-10-26T21:43:40.534Z,5.00
2022-10-26T21:46:08.264Z,16.60
2022-10-26T21:48:35.659Z,6.63
2022-10-26T21:51:06.669Z,5.40
2022-10-26T21:53:33.650Z,5.43
2022-10-26T21:56:04.885Z,4.50
2022-10-26T21:58:32.050Z,6.27
2022-10-26T22:01:19.998Z,5.90
2022-10-26T22:03:47.895Z,9.47
2022-10-26T22:08:50.359Z,5.30
2022-10-26T22:11:20.394Z,6.03
2022-10-26T22:13:48.916Z,5.40
2022-10-26T22:16:28.446Z,5.13
2022-10-26T22:18:58.024Z,4.53
2022-10-26T22:21:27.701Z,4.63
2022-10-26T22:23:55.812Z,5.17
2022-10-26T22:26:24.492Z,5.00
2022-10-26T22:28:53.362Z,4.87
2022-10-26T22:31:23.580Z,4.70
2022-10-26T22:34:02.017Z,5.23
2022-10-26T22:36:32.121Z,5.60
2022-10-26T22:38:58.877Z,4.80
2022-10-26T22:41:26.167Z,4.80
2022-10-26T22:43:52.887Z,4.83
2022-10-26T22:46:22.195Z,4.77
2022-10-26T22:49:00.759Z,5.20
2022-10-26T22:51:31.157Z,5.40
2022-10-26T22:54:00.274Z,5.60
2022-10-26T22:56:29.345Z,5.27
2022-10-26T22:58:57.422Z,5.30
2022-10-26T23:01:27.570Z,4.70
2022-10-26T23:03:57.651Z,4.60
2022-10-26T23:06:27.057Z,4.73
2022-10-26T23:08:54.091Z,4.00
2022-10-26T23:11:22.793Z,19.93
2022-10-26T23:13:53.777Z,18.30
2022-10-26T23:16:21.282Z,7.97
2022-10-26T23:18:49.060Z,4.57
2022-10-26T23:21:16.972Z,4.53
2022-10-26T23:23:43.894Z,4.07
2022-10-26T23:26:13.962Z,4.33
2022-10-26T23:28:42.795Z,2.77
2022-10-26T23:31:16.145Z,3.63
2022-10-26T23:33:43.328Z,4.13
2022-10-26T23:36:10.228Z,12.60
2022-10-26T23:38:37.167Z,14.93
2022-10-26T23:41:04.323Z,7.00
2022-10-26T23:43:31.477Z,5.30
2022-10-26T23:45:58.380Z,4.63
2022-10-26T23:48:25.098Z,5.33
2022-10-26T23:50:52.158Z,4.93
2022-10-26T23:53:22.551Z,4.60
2022-10-26T23:55:49.818Z,4.40
2022-10-26T23:58:17.762Z,4.70
